Jolley, Iowa
Current Conditions -  °F | °C
As of 7:55 AM on Wednesday 26 Nov 2014 (Local Time) from KSLB Reporting Station
Light Snow Light Snow  
Wind Chill: -7°   Ceiling: 500
Heat Index: -2°   Visibility: 1mi
Dew Point: -3°   Wind: 9mph
Humidity: 93%   Direction: 30°NNE
Pressure: 29.92"   Gusts: NA
Location:  42.48°N, 94.72°W
Report Text: KSLB 261355Z AUTO 03008KT 1SM -SN OVC005 M02/M03 A2992 RMK AO2
Loading
Personal Weather Stations






























Interactive Weather Map New forecast layout! Learn more

10-Day Weather Forecast

Advertisements
Track Severe Weather on mobile